Time;durP1;ratioP1;P1;durP2;ratioP2;P2;SDS_P1;SDS_P2;PMS_P1;PMS_P2;Temp;Humidity;BMP_temperature;BMP_pressure;BME280_temperature;BME280_humidity;BME280_pressure;Samples;Min_cycle;Max_cycle;Signal;HPM_P1;HPM_P2
2023/04/21 00:02:14;;;;;;;21.33;11.20;;;6.60;94.90;;;;;;5005656;28;20338;-74
2023/04/21 00:04:40;;;;;;;24.65;10.95;;;6.50;94.90;;;;;;5003852;28;20095;-74
2023/04/21 00:07:07;;;;;;;19.55;10.77;;;6.50;94.90;;;;;;4996022;28;20038;-74
2023/04/21 00:09:32;;;;;;;23.05;11.95;;;6.50;95.00;;;;;;5008199;28;20022;-74
2023/04/21 00:11:58;;;;;;;22.55;11.68;;;6.40;95.10;;;;;;5002758;28;20461;-74
2023/04/21 00:14:23;;;;;;;20.13;11.18;;;6.50;95.10;;;;;;4999483;28;20463;-74
2023/04/21 00:16:51;;;;;;;22.92;11.55;;;6.40;94.90;;;;;;5000423;28;20112;-75
2023/04/21 00:19:18;;;;;;;17.33;10.52;;;6.50;95.10;;;;;;5001846;28;20505;-74
2023/04/21 00:21:44;;;;;;;22.38;11.52;;;6.40;95.00;;;;;;5002992;28;20036;-75
2023/04/21 00:24:10;;;;;;;18.48;11.32;;;6.40;95.00;;;;;;5015203;28;20034;-75
2023/04/21 00:26:35;;;;;;;20.42;11.25;;;6.40;94.90;;;;;;5006810;28;20041;-74
2023/04/21 00:29:01;;;;;;;18.30;9.98;;;6.40;95.00;;;;;;5003972;28;20327;-75
2023/04/21 00:31:27;;;;;;;18.95;11.05;;;6.30;95.10;;;;;;5007858;28;20188;-74
2023/04/21 00:33:53;;;;;;;22.75;11.82;;;6.30;95.10;;;;;;5008127;28;20049;-74
2023/04/21 00:36:18;;;;;;;18.63;11.00;;;6.20;95.20;;;;;;5003649;28;20049;-74
2023/04/21 00:38:44;;;;;;;19.25;10.57;;;6.30;95.20;;;;;;4999610;28;20034;-74
2023/04/21 00:41:09;;;;;;;19.30;11.32;;;6.30;95.20;;;;;;5007889;28;20036;-74
2023/04/21 00:43:35;;;;;;;22.58;11.95;;;6.30;95.20;;;;;;5005290;28;20034;-74
2023/04/21 00:46:01;;;;;;;23.38;11.98;;;6.30;95.20;;;;;;5001171;28;20080;-75
2023/04/21 00:48:26;;;;;;;21.52;11.73;;;6.20;95.00;;;;;;4995703;28;20040;-74
2023/04/21 00:50:52;;;;;;;21.15;11.98;;;6.30;95.20;;;;;;5002735;28;20103;-74
2023/04/21 00:53:19;;;;;;;19.42;11.30;;;6.30;95.10;;;;;;5005223;28;20090;-75
2023/04/21 00:55:45;;;;;;;18.27;11.57;;;6.20;95.10;;;;;;5007558;28;20072;-74
2023/04/21 00:58:10;;;;;;;18.83;11.75;;;6.20;95.20;;;;;;5003800;28;20026;-74
2023/04/21 01:00:38;;;;;;;23.75;12.18;;;6.30;95.10;;;;;;5012670;28;20065;-75
2023/04/21 01:03:05;;;;;;;16.75;10.95;;;6.20;95.00;;;;;;4991407;28;20073;-74
2023/04/21 01:05:31;;;;;;;19.08;10.52;;;6.20;95.10;;;;;;5009005;28;20073;-74
2023/04/21 01:07:56;;;;;;;17.02;10.13;;;6.10;95.20;;;;;;5008209;28;20125;-74
2023/04/21 01:10:22;;;;;;;17.58;11.65;;;6.10;95.30;;;;;;4996970;28;20470;-74
2023/04/21 01:12:47;;;;;;;20.63;10.90;;;6.10;95.40;;;;;;4998868;28;20435;-74
2023/04/21 01:15:16;;;;;;;20.42;11.48;;;6.10;95.40;;;;;;5004632;28;20030;-74
2023/04/21 01:17:42;;;;;;;21.42;11.75;;;6.10;95.30;;;;;;5005608;28;20108;-76
2023/04/21 01:20:10;;;;;;;21.63;11.30;;;6.10;95.30;;;;;;5005648;28;20032;-74
2023/04/21 01:22:37;;;;;;;25.25;11.52;;;6.10;95.30;;;;;;4998856;28;20106;-74
2023/04/21 01:25:03;;;;;;;19.35;11.38;;;6.10;95.20;;;;;;5006060;28;20113;-74
2023/04/21 01:27:28;;;;;;;21.73;11.77;;;6.10;95.30;;;;;;5005549;28;20070;-74
2023/04/21 01:29:54;;;;;;;16.92;11.75;;;6.00;95.40;;;;;;5001301;28;20435;-74
2023/04/21 01:32:23;;;;;;;18.80;11.23;;;6.10;95.50;;;;;;4998991;28;20407;-74
2023/04/21 01:34:49;;;;;;;21.38;11.25;;;6.10;95.50;;;;;;5004777;28;20070;-75
2023/04/21 01:37:18;;;;;;;24.30;11.48;;;6.10;95.40;;;;;;5004752;28;20030;-74
2023/04/21 01:39:46;;;;;;;18.85;11.02;;;6.10;95.30;;;;;;4999345;28;20053;-73
2023/04/21 01:42:12;;;;;;;20.73;11.63;;;6.10;95.20;;;;;;5003114;28;20058;-74
2023/04/21 01:44:38;;;;;;;20.42;11.70;;;6.10;95.40;;;;;;4999678;28;20030;-76
2023/04/21 01:47:05;;;;;;;19.75;12.05;;;6.10;95.20;;;;;;4999493;28;20033;-74
2023/04/21 01:49:31;;;;;;;19.75;11.70;;;6.20;95.20;;;;;;4998743;28;20104;-74
2023/04/21 01:51:56;;;;;;;20.33;11.13;;;6.20;95.00;;;;;;5003791;28;20105;-74
2023/04/21 01:54:22;;;;;;;22.10;12.00;;;6.10;95.00;;;;;;5000422;28;20200;-76
2023/04/21 01:56:47;;;;;;;15.80;10.80;;;6.30;94.60;;;;;;5002049;28;20045;-74
2023/04/21 01:59:13;;;;;;;22.63;11.43;;;6.20;94.90;;;;;;5004869;28;20420;-75
2023/04/21 02:01:38;;;;;;;18.20;10.52;;;6.20;94.70;;;;;;4999429;28;20058;-74
2023/04/21 02:04:04;;;;;;;19.05;10.23;;;6.20;94.80;;;;;;5000629;28;20053;-74
2023/04/21 02:06:32;;;;;;;19.90;10.00;;;6.20;94.70;;;;;;5004736;28;20086;-74
2023/04/21 02:08:58;;;;;;;20.38;10.45;;;6.20;94.80;;;;;;4998712;28;20167;-74
2023/04/21 02:11:24;;;;;;;15.73;10.13;;;6.10;94.80;;;;;;5004779;28;20112;-75
2023/04/21 02:13:54;;;;;;;17.67;10.52;;;6.20;94.80;;;;;;5003359;28;20063;-74
2023/04/21 02:16:20;;;;;;;20.20;10.98;;;6.20;94.80;;;;;;5000917;28;20037;-74
2023/04/21 02:18:47;;;;;;;20.17;10.25;;;6.20;94.60;;;;;;5001490;28;20584;-74
2023/04/21 02:21:12;;;;;;;27.33;10.60;;;6.10;94.70;;;;;;5006226;28;20128;-74
2023/04/21 02:23:38;;;;;;;21.55;10.95;;;6.10;94.80;;;;;;5006787;28;20026;-74
2023/04/21 02:26:03;;;;;;;17.88;9.98;;;6.20;94.80;;;;;;5004204;28;20101;-75
2023/04/21 02:28:30;;;;;;;17.83;10.05;;;6.10;94.70;;;;;;5006123;28;20046;-75
2023/04/21 02:30:55;;;;;;;21.20;10.75;;;6.10;94.80;;;;;;5011867;28;20419;-74
2023/04/21 02:33:21;;;;;;;17.27;10.25;;;6.00;94.90;;;;;;5007269;28;20105;-74
2023/04/21 02:35:46;;;;;;;19.50;10.30;;;6.10;95.00;;;;;;5003695;28;20022;-74
2023/04/21 02:38:12;;;;;;;18.60;10.30;;;6.00;95.10;;;;;;5003000;28;20056;-75
2023/04/21 02:40:37;;;;;;;19.88;10.20;;;6.10;95.20;;;;;;5006383;28;20100;-74
2023/04/21 02:43:03;;;;;;;17.42;10.65;;;6.10;95.00;;;;;;5004139;28;20349;-74
2023/04/21 02:45:28;;;;;;;14.82;9.40;;;6.00;95.00;;;;;;5007250;28;20423;-74
2023/04/21 02:47:54;;;;;;;15.98;9.65;;;6.00;95.10;;;;;;5009056;28;20030;-74
2023/04/21 02:50:19;;;;;;;24.33;11.10;;;6.00;95.10;;;;;;5002021;28;20334;-76
2023/04/21 02:52:45;;;;;;;16.55;10.07;;;6.00;95.10;;;;;;5005172;28;20033;-74
2023/04/21 02:55:10;;;;;;;18.35;10.10;;;6.10;95.10;;;;;;5003124;28;20030;-74
2023/04/21 02:57:36;;;;;;;20.65;10.65;;;6.10;95.00;;;;;;5012103;28;20033;-75
2023/04/21 03:00:01;;;;;;;19.67;10.50;;;6.10;94.90;;;;;;5012947;28;20022;-74
2023/04/21 03:02:27;;;;;;;20.85;10.35;;;6.10;95.00;;;;;;5010951;28;20466;-74
2023/04/21 03:04:52;;;;;;;20.80;10.93;;;6.10;95.00;;;;;;5007019;28;20037;-74
2023/04/21 03:07:18;;;;;;;15.27;9.77;;;6.10;95.00;;;;;;5007542;28;20195;-74
2023/04/21 03:09:43;;;;;;;16.20;9.48;;;6.00;95.00;;;;;;5005992;28;20488;-75
2023/04/21 03:12:09;;;;;;;20.08;9.80;;;6.10;95.00;;;;;;5002719;28;20045;-74
2023/04/21 03:14:34;;;;;;;15.90;9.98;;;6.10;94.70;;;;;;5001132;28;20037;-76
2023/04/21 03:17:00;;;;;;;21.10;9.88;;;6.10;94.70;;;;;;4996358;28;20048;-74
2023/04/21 03:19:25;;;;;;;19.85;10.13;;;6.00;94.80;;;;;;5006003;28;20353;-74
2023/04/21 03:21:51;;;;;;;19.83;10.07;;;6.00;95.00;;;;;;5007858;28;20045;-74
2023/04/21 03:24:16;;;;;;;21.65;10.10;;;6.10;95.20;;;;;;5006744;28;20054;-74
2023/04/21 03:26:42;;;;;;;20.85;10.77;;;6.00;94.80;;;;;;5005569;28;20589;-75
2023/04/21 03:29:07;;;;;;;23.13;10.45;;;6.10;94.90;;;;;;5005308;28;20113;-74
2023/04/21 03:31:33;;;;;;;19.15;9.55;;;6.00;94.90;;;;;;5008252;28;20403;-74
2023/04/21 03:33:59;;;;;;;22.30;10.40;;;6.00;94.90;;;;;;5005397;28;20049;-75
2023/04/21 03:36:25;;;;;;;16.10;10.32;;;5.90;95.00;;;;;;5008568;28;20116;-74
2023/04/21 03:38:50;;;;;;;19.90;9.77;;;5.90;95.10;;;;;;4999788;28;20045;-75
2023/04/21 03:41:16;;;;;;;18.52;10.25;;;6.00;94.90;;;;;;5006165;28;20041;-74
2023/04/21 03:43:41;;;;;;;15.93;10.10;;;6.00;95.10;;;;;;4999747;28;20085;-74
2023/04/21 03:46:07;;;;;;;17.05;9.65;;;5.90;94.80;;;;;;5001410;28;20033;-74
2023/04/21 03:48:32;;;;;;;18.90;9.57;;;5.90;94.90;;;;;;5000130;28;20025;-74
2023/04/21 03:50:58;;;;;;;22.17;10.35;;;5.90;95.00;;;;;;5001577;28;20037;-73
2023/04/21 03:53:23;;;;;;;19.10;9.98;;;5.90;95.20;;;;;;5006929;28;20103;-74
2023/04/21 03:55:49;;;;;;;18.88;10.63;;;5.90;95.10;;;;;;5003911;28;20510;-75
2023/04/21 03:58:15;;;;;;;14.93;9.48;;;5.80;95.20;;;;;;5004065;28;20045;-74
2023/04/21 04:00:41;;;;;;;17.52;9.93;;;5.90;95.20;;;;;;4996066;28;20432;-74
2023/04/21 04:03:06;;;;;;;26.13;10.65;;;5.80;95.10;;;;;;4993721;28;20038;-74
2023/04/21 04:05:33;;;;;;;16.88;10.57;;;5.80;95.20;;;;;;5006129;28;20447;-74
2023/04/21 04:07:59;;;;;;;18.73;10.60;;;5.90;95.10;;;;;;5001148;28;20041;-75
2023/04/21 04:10:24;;;;;;;21.88;10.45;;;5.80;95.10;;;;;;5003364;28;20412;-74
2023/04/21 04:12:50;;;;;;;21.52;10.60;;;5.90;95.30;;;;;;4995796;28;20114;-74
2023/04/21 04:15:15;;;;;;;19.90;11.35;;;5.90;95.00;;;;;;4996547;28;20046;-74
2023/04/21 04:17:41;;;;;;;17.98;10.60;;;6.00;94.90;;;;;;4996797;28;20030;-76
2023/04/21 04:20:07;;;;;;;22.27;11.48;;;5.90;94.70;;;;;;5001606;28;20435;-74
2023/04/21 04:22:33;;;;;;;22.73;10.60;;;6.00;94.80;;;;;;5006989;28;20025;-74
2023/04/21 04:25:00;;;;;;;20.10;10.80;;;6.00;94.70;;;;;;5001335;28;20060;-74
2023/04/21 04:27:28;;;;;;;17.38;10.25;;;6.00;94.60;;;;;;4995581;28;20018;-74
2023/04/21 04:29:54;;;;;;;20.73;11.82;;;5.90;94.70;;;;;;5000250;28;20026;-81
2023/04/21 04:32:20;;;;;;;21.60;11.18;;;6.00;94.50;;;;;;4995458;28;20395;-79
2023/04/21 04:34:46;;;;;;;15.80;10.63;;;6.00;94.50;;;;;;5007766;28;20350;-78
2023/04/21 04:37:11;;;;;;;17.02;10.25;;;6.10;94.50;;;;;;5005010;28;20034;-78
2023/04/21 04:39:37;;;;;;;20.25;10.23;;;6.10;94.20;;;;;;4999282;28;20030;-78
2023/04/21 04:42:07;;;;;;;22.73;10.80;;;6.10;94.30;;;;;;5009682;28;20041;-77
2023/04/21 04:44:33;;;;;;;21.57;11.90;;;6.10;94.40;;;;;;4997556;28;20109;-76
2023/04/21 04:46:58;;;;;;;22.27;11.05;;;6.10;94.40;;;;;;4996347;28;20180;-77
2023/04/21 04:49:24;;;;;;;20.70;10.80;;;6.10;94.20;;;;;;4991355;28;20038;-77
2023/04/21 04:51:50;;;;;;;21.05;10.88;;;6.10;94.20;;;;;;4991244;28;20097;-77
2023/04/21 04:54:15;;;;;;;23.05;10.27;;;6.10;94.10;;;;;;4990661;28;20156;-78
2023/04/21 04:56:41;;;;;;;20.27;11.27;;;6.20;94.20;;;;;;5000101;28;20033;-79
2023/04/21 04:59:07;;;;;;;20.10;10.98;;;6.20;94.00;;;;;;4996930;28;20139;-79
2023/04/21 05:01:32;;;;;;;20.48;10.98;;;6.20;93.90;;;;;;5000754;28;20062;-79
2023/04/21 05:03:58;;;;;;;17.80;11.07;;;6.30;93.80;;;;;;5001630;28;20049;-78
2023/04/21 05:06:24;;;;;;;18.77;10.45;;;6.30;93.50;;;;;;5004569;28;20370;-77
2023/04/21 05:08:49;;;;;;;21.15;10.05;;;6.40;93.50;;;;;;4998837;28;20041;-77
2023/04/21 05:11:15;;;;;;;17.63;9.93;;;6.50;93.20;;;;;;5004861;28;20030;-78
2023/04/21 05:13:40;;;;;;;18.48;9.80;;;6.50;93.00;;;;;;5003433;28;20736;-78
2023/04/21 05:16:06;;;;;;;19.05;9.93;;;6.60;92.90;;;;;;5005030;28;20070;-76
2023/04/21 05:18:32;;;;;;;17.42;9.52;;;6.60;92.80;;;;;;5004642;28;20033;-75
2023/04/21 05:20:57;;;;;;;21.05;11.30;;;6.60;92.70;;;;;;5004473;28;20042;-77
2023/04/21 05:23:23;;;;;;;18.50;9.85;;;6.60;92.60;;;;;;5005209;28;20140;-76
2023/04/21 05:25:48;;;;;;;15.52;8.70;;;6.70;92.60;;;;;;5004421;28;20041;-77
2023/04/21 05:28:14;;;;;;;17.58;10.32;;;6.80;92.40;;;;;;5001285;28;20042;-77
2023/04/21 05:30:40;;;;;;;19.13;10.52;;;6.80;92.20;;;;;;4997043;28;20038;-75
2023/04/21 05:33:05;;;;;;;18.35;10.15;;;6.90;91.90;;;;;;4997777;28;20069;-78
2023/04/21 05:35:31;;;;;;;16.30;9.45;;;7.00;91.60;;;;;;5003147;28;20425;-76
2023/04/21 05:37:57;;;;;;;19.08;9.90;;;7.10;91.60;;;;;;5000867;28;20107;-77
2023/04/21 05:40:22;;;;;;;14.40;9.90;;;7.10;91.00;;;;;;4997674;28;20153;-77
2023/04/21 05:42:48;;;;;;;17.00;9.25;;;7.20;90.60;;;;;;5001369;28;20088;-78
2023/04/21 05:45:13;;;;;;;16.73;10.27;;;7.20;91.00;;;;;;5005003;28;20066;-78
2023/04/21 05:47:39;;;;;;;18.23;9.52;;;7.20;90.90;;;;;;5003006;28;20037;-77
2023/04/21 05:50:05;;;;;;;15.32;9.80;;;7.30;90.90;;;;;;4996220;28;20474;-77
2023/04/21 05:52:31;;;;;;;19.17;10.07;;;7.40;90.40;;;;;;5001115;28;20537;-77
2023/04/21 05:54:58;;;;;;;17.40;9.63;;;7.50;90.20;;;;;;5008421;28;20204;-77
2023/04/21 05:57:24;;;;;;;18.25;9.85;;;7.60;89.70;;;;;;5002057;28;20026;-76
2023/04/21 05:59:49;;;;;;;16.88;8.70;;;7.70;89.80;;;;;;5011016;28;20068;-77
2023/04/21 06:02:15;;;;;;;22.13;9.13;;;7.70;89.50;;;;;;5013861;28;20488;-77
2023/04/21 06:04:40;;;;;;;17.65;9.80;;;7.80;89.40;;;;;;5005745;28;20076;-76
2023/04/21 06:07:07;;;;;;;15.93;9.13;;;7.90;89.70;;;;;;5009691;28;20113;-77
2023/04/21 06:09:34;;;;;;;16.13;9.82;;;8.00;89.30;;;;;;5009523;28;20022;-77
2023/04/21 06:12:00;;;;;;;19.85;8.77;;;8.10;88.80;;;;;;5007625;28;20022;-77
2023/04/21 06:14:26;;;;;;;19.23;9.10;;;8.20;88.80;;;;;;5007639;28;20030;-77
2023/04/21 06:16:51;;;;;;;17.98;9.88;;;8.30;88.70;;;;;;5008631;28;20025;-77
2023/04/21 06:19:17;;;;;;;15.30;9.13;;;8.40;88.00;;;;;;5002127;28;20038;-77
2023/04/21 06:21:42;;;;;;;14.00;9.18;;;8.50;88.00;;;;;;5013693;28;20135;-77
2023/04/21 06:24:08;;;;;;;17.23;8.70;;;8.70;88.20;;;;;;5018163;28;20075;-77
2023/04/21 06:26:34;;;;;;;17.42;9.25;;;8.80;87.90;;;;;;4991785;28;20092;-77
2023/04/21 06:28:59;;;;;;;18.75;9.20;;;9.10;86.80;;;;;;4994862;28;20044;-77
2023/04/21 06:31:25;;;;;;;17.45;9.23;;;9.10;86.90;;;;;;5002996;28;20080;-77
2023/04/21 06:33:50;;;;;;;15.48;9.70;;;9.30;86.20;;;;;;5008055;28;20374;-77
2023/04/21 06:36:16;;;;;;;15.30;9.52;;;9.40;85.40;;;;;;5005732;28;20112;-77
2023/04/21 06:38:42;;;;;;;13.75;9.00;;;9.60;85.40;;;;;;5010678;28;20026;-77
2023/04/21 06:41:08;;;;;;;17.65;9.23;;;9.70;85.20;;;;;;5002037;28;20030;-77
2023/04/21 06:43:34;;;;;;;18.08;8.63;;;9.90;84.50;;;;;;5001642;28;20125;-77
2023/04/21 06:45:59;;;;;;;16.65;8.57;;;10.00;83.00;;;;;;5008623;28;20062;-77
2023/04/21 06:48:25;;;;;;;15.05;8.77;;;10.00;83.50;;;;;;5004277;28;20426;-77
2023/04/21 06:50:51;;;;;;;13.25;8.63;;;10.30;84.50;;;;;;5007960;28;20121;-77
2023/04/21 06:53:20;;;;;;;13.10;8.50;;;10.40;82.10;;;;;;5008247;28;20030;-77
2023/04/21 06:55:46;;;;;;;17.02;9.43;;;10.60;82.30;;;;;;5002107;28;20029;-76
2023/04/21 06:58:12;;;;;;;14.77;8.38;;;10.80;81.20;;;;;;5001469;28;20025;-77
2023/04/21 07:00:37;;;;;;;15.45;8.05;;;11.00;80.40;;;;;;5009329;28;20077;-76
2023/04/21 07:03:03;;;;;;;15.82;8.10;;;11.00;78.70;;;;;;5010563;28;20033;-77
2023/04/21 07:05:28;;;;;;;12.93;8.70;;;11.20;80.00;;;;;;5001071;28;20034;-77
2023/04/21 07:07:58;;;;;;;16.25;8.40;;;11.50;79.40;;;;;;5001376;28;20030;-77
2023/04/21 07:10:27;;;;;;;14.35;7.95;;;11.50;77.70;;;;;;5007428;28;20037;-77
2023/04/21 07:12:53;;;;;;;17.90;8.27;;;11.70;77.70;;;;;;5006531;28;20512;-77
2023/04/21 07:15:19;;;;;;;13.48;8.40;;;11.60;77.20;;;;;;5015865;28;20042;-76
2023/04/21 07:17:45;;;;;;;10.65;7.60;;;11.80;77.10;;;;;;4997853;28;20164;-77
2023/04/21 07:20:11;;;;;;;13.00;7.78;;;12.00;75.80;;;;;;5001907;28;20125;-77
2023/04/21 07:22:37;;;;;;;12.55;7.78;;;12.00;75.90;;;;;;5006449;28;20309;-78
2023/04/21 07:25:06;;;;;;;12.45;7.65;;;12.10;75.80;;;;;;5009243;28;20087;-77
2023/04/21 07:27:35;;;;;;;14.98;7.88;;;12.30;76.20;;;;;;5005009;28;20034;-78
2023/04/21 07:30:02;;;;;;;12.90;7.80;;;12.30;75.60;;;;;;4999606;28;20510;-77
2023/04/21 07:32:27;;;;;;;14.38;8.02;;;12.60;75.50;;;;;;4999950;28;20061;-77
2023/04/21 07:34:53;;;;;;;12.68;8.23;;;12.80;74.80;;;;;;5013161;28;20458;-77
2023/04/21 07:37:18;;;;;;;12.98;8.30;;;13.00;73.00;;;;;;5000395;28;20065;-77
2023/04/21 07:39:44;;;;;;;15.30;8.15;;;12.80;72.90;;;;;;5006782;28;20029;-77
2023/04/21 07:42:10;;;;;;;14.50;8.05;;;12.90;73.00;;;;;;5008752;28;20068;-77
2023/04/21 07:44:36;;;;;;;10.88;7.95;;;13.00;71.60;;;;;;5007186;28;20053;-77
2023/04/21 07:47:02;;;;;;;14.90;6.90;;;13.20;71.80;;;;;;5007981;28;20115;-77
2023/04/21 07:49:27;;;;;;;14.70;8.35;;;13.20;69.90;;;;;;5004523;28;20120;-77
2023/04/21 07:51:53;;;;;;;12.30;7.65;;;13.40;70.30;;;;;;5005387;28;20108;-77
2023/04/21 07:54:18;;;;;;;19.52;8.13;;;13.50;69.80;;;;;;4999033;28;20026;-77
2023/04/21 07:56:44;;;;;;;13.18;7.43;;;13.70;70.90;;;;;;5007404;28;20030;-77
2023/04/21 07:59:09;;;;;;;11.23;6.93;;;13.80;69.40;;;;;;5012673;28;20029;-77
2023/04/21 08:01:35;;;;;;;13.73;7.90;;;14.00;68.60;;;;;;5006844;28;20046;-77
2023/04/21 08:04:00;;;;;;;12.10;7.43;;;14.10;67.50;;;;;;5005127;28;20037;-77
2023/04/21 08:06:26;;;;;;;14.80;8.27;;;14.20;68.30;;;;;;5009470;28;20034;-77
2023/04/21 08:08:53;;;;;;;14.85;8.02;;;14.30;66.50;;;;;;5008370;28;20370;-77
2023/04/21 08:11:18;;;;;;;13.50;7.72;;;14.60;68.40;;;;;;5004183;28;20041;-77
2023/04/21 08:13:44;;;;;;;16.45;7.32;;;14.60;68.30;;;;;;5005800;28;20419;-77
2023/04/21 08:16:09;;;;;;;14.13;7.60;;;15.10;67.10;;;;;;5005989;28;20086;-77
2023/04/21 08:18:35;;;;;;;13.18;7.50;;;15.50;67.60;;;;;;5004955;28;20124;-77
2023/04/21 08:21:01;;;;;;;12.73;7.43;;;15.70;65.30;;;;;;5002188;28;20048;-77
2023/04/21 08:23:29;;;;;;;13.35;7.43;;;15.50;64.90;;;;;;5007962;28;20022;-77
2023/04/21 08:25:54;;;;;;;10.32;7.22;;;15.50;64.50;;;;;;5005496;28;20156;-77
2023/04/21 08:28:20;;;;;;;13.52;7.40;;;15.80;62.60;;;;;;4997407;28;20465;-77
2023/04/21 08:30:45;;;;;;;11.55;6.88;;;15.80;63.10;;;;;;5006050;28;20026;-77
2023/04/21 08:33:12;;;;;;;10.10;6.55;;;15.60;63.00;;;;;;4997340;28;20248;-77
2023/04/21 08:35:39;;;;;;;15.50;7.45;;;15.80;62.60;;;;;;4996244;28;20090;-77
2023/04/21 08:38:05;;;;;;;12.20;7.13;;;16.00;62.00;;;;;;5004615;28;20046;-78
2023/04/21 08:40:40;;;;;;;13.43;7.65;;;16.00;62.60;;;;;;5007482;28;20109;-77
2023/04/21 08:43:07;;;;;;;12.30;6.60;;;16.00;61.10;;;;;;5010223;28;20041;-77
2023/04/21 08:45:33;;;;;;;16.02;7.03;;;16.20;62.10;;;;;;5003490;28;20042;-78
2023/04/21 08:48:00;;;;;;;11.82;7.45;;;16.20;61.40;;;;;;5004664;28;20421;-77
2023/04/21 08:50:27;;;;;;;8.77;6.82;;;16.10;60.30;;;;;;5003343;28;20037;-77
2023/04/21 08:52:56;;;;;;;13.50;7.32;;;16.40;61.00;;;;;;5006673;28;20038;-77
2023/04/21 08:55:31;;;;;;;11.13;6.45;;;16.10;59.90;;;;;;5005282;28;20038;-77
2023/04/21 08:57:57;;;;;;;11.00;6.88;;;16.90;59.20;;;;;;5007466;28;20076;-77
2023/04/21 09:00:22;;;;;;;11.63;7.30;;;17.00;59.10;;;;;;5005985;28;20054;-78
2023/04/21 09:02:56;;;;;;;11.77;7.03;;;17.50;59.90;;;;;;4999797;28;20080;-77
2023/04/21 09:05:26;;;;;;;12.70;6.28;;;17.30;57.30;;;;;;5004402;28;20212;-77
2023/04/21 09:08:14;;;;;;;9.98;6.30;;;17.30;56.40;;;;;;4992263;28;20044;-77
2023/04/21 09:10:47;;;;;;;12.95;6.32;;;17.50;57.60;;;;;;5004803;28;20033;-77
2023/04/21 09:13:14;;;;;;;10.85;6.22;;;17.90;56.90;;;;;;5006579;28;20060;-77
2023/04/21 09:15:45;;;;;;;13.30;6.60;;;18.10;57.10;;;;;;5003718;28;20046;-78
2023/04/21 09:18:19;;;;;;;12.70;6.65;;;18.00;56.40;;;;;;5001068;28;20041;-77
2023/04/21 09:20:48;;;;;;;11.40;6.47;;;17.90;56.00;;;;;;5008863;28;20026;-77
2023/04/21 09:23:13;;;;;;;12.73;6.05;;;18.20;57.40;;;;;;5004657;28;20074;-78
2023/04/21 09:25:41;;;;;;;11.82;5.93;;;17.90;53.80;;;;;;5003505;28;20077;-77
2023/04/21 09:28:11;;;;;;;13.45;6.95;;;18.10;55.30;;;;;;5003953;28;20106;-77
2023/04/21 09:30:38;;;;;;;19.50;6.27;;;18.20;55.70;;;;;;4990678;28;20042;-77
2023/04/21 09:33:03;;;;;;;9.25;6.30;;;18.50;54.90;;;;;;5006508;28;20200;-77
2023/04/21 09:35:32;;;;;;;9.80;6.60;;;18.60;53.90;;;;;;5002788;28;20045;-77
2023/04/21 09:38:00;;;;;;;9.52;6.10;;;18.10;54.10;;;;;;5002653;28;20339;-78
2023/04/21 09:40:27;;;;;;;10.00;6.60;;;18.10;54.00;;;;;;5003622;28;20180;-78
2023/04/21 09:42:52;;;;;;;11.38;6.72;;;18.10;53.20;;;;;;5004772;28;20026;-78
2023/04/21 09:45:18;;;;;;;10.63;6.18;;;18.40;53.80;;;;;;5007831;28;20029;-77
2023/04/21 09:47:49;;;;;;;11.55;6.80;;;18.30;53.10;;;;;;4998705;28;20029;-78
2023/04/21 09:50:15;;;;;;;;;;;18.70;54.30;;;;;;5002972;28;20409;-78
2023/04/21 09:52:43;;;;;;;11.68;5.85;;;19.20;54.70;;;;;;5001525;28;20008;-78
2023/04/21 09:55:12;;;;;;;9.25;6.53;;;18.90;51.30;;;;;;5006137;28;20045;-77
2023/04/21 09:57:40;;;;;;;11.10;6.22;;;19.20;53.20;;;;;;5002355;28;20052;-77
2023/04/21 10:00:08;;;;;;;10.63;6.15;;;19.00;52.40;;;;;;4998500;28;20145;-79
2023/04/21 10:02:37;;;;;;;10.80;6.47;;;19.40;51.30;;;;;;5002316;28;20046;-78
2023/04/21 10:05:06;;;;;;;8.63;6.15;;;19.30;51.00;;;;;;5008843;28;20419;-78
2023/04/21 10:07:31;;;;;;;11.18;6.38;;;19.50;50.80;;;;;;5011004;28;20422;-78
2023/04/21 10:09:58;;;;;;;10.30;6.72;;;19.30;50.70;;;;;;4998933;28;20033;-77
2023/04/21 10:12:27;;;;;;;11.65;6.95;;;19.20;50.20;;;;;;5002333;28;20486;-77
2023/04/21 10:14:56;;;;;;;11.70;6.43;;;19.30;50.00;;;;;;5008740;28;20120;-77
2023/04/21 10:17:24;;;;;;;10.77;6.05;;;19.60;51.60;;;;;;5003745;28;20061;-78
2023/04/21 10:19:52;;;;;;;10.23;6.57;;;19.70;51.60;;;;;;4992349;28;20018;-78
2023/04/21 10:22:34;;;;;;;13.52;7.03;;;20.10;50.70;;;;;;5003631;28;20112;-78
2023/04/21 10:25:07;;;;;;;11.13;6.30;;;20.20;50.70;;;;;;5001217;28;20022;-77
2023/04/21 10:27:39;;;;;;;13.23;6.60;;;20.20;49.30;;;;;;5004110;28;20025;-78
2023/04/21 10:30:27;;;;;;;11.38;6.45;;;20.30;47.50;;;;;;5006384;28;20037;-76
2023/04/21 10:33:05;;;;;;;10.00;6.40;;;20.10;51.00;;;;;;4994430;28;20057;-77
2023/04/21 10:36:00;;;;;;;10.68;6.47;;;20.40;49.30;;;;;;5002294;28;20075;-77
2023/04/21 10:38:40;;;;;;;9.85;6.25;;;20.70;49.30;;;;;;5003450;28;20079;-77
2023/04/21 10:41:28;;;;;;;10.83;6.43;;;20.70;50.00;;;;;;5000207;28;20029;-77
2023/04/21 10:44:12;;;;;;;10.80;6.38;;;20.60;46.50;;;;;;5001941;28;20375;-76
2023/04/21 10:46:51;;;;;;;12.40;5.97;;;21.00;48.10;;;;;;5000947;28;20029;-77
2023/04/21 10:49:25;;;;;;;8.95;5.90;;;20.80;46.10;;;;;;5005742;28;20022;-78
2023/04/21 10:52:02;;;;;;;10.30;6.68;;;20.80;46.70;;;;;;5003710;28;20157;-78
2023/04/21 10:54:46;;;;;;;10.65;6.07;;;20.90;46.70;;;;;;5001474;28;20064;-76
2023/04/21 10:57:19;;;;;;;10.98;6.00;;;20.90;45.00;;;;;;4998928;28;20034;-76
2023/04/21 10:59:46;;;;;;;12.32;6.07;;;20.70;45.50;;;;;;5001326;28;20052;-76
2023/04/21 11:02:14;;;;;;;10.23;6.13;;;21.00;45.40;;;;;;4997558;28;20140;-77
2023/04/21 11:04:43;;;;;;;8.38;6.07;;;21.40;44.10;;;;;;5009042;28;20038;-75
2023/04/21 11:07:13;;;;;;;9.52;6.07;;;21.30;44.00;;;;;;5002264;28;20061;-76
2023/04/21 11:09:40;;;;;;;9.70;5.55;;;21.20;45.30;;;;;;4991384;28;20080;-77
2023/04/21 11:12:09;;;;;;;10.05;5.32;;;21.80;45.60;;;;;;5002158;28;20095;-77
2023/04/21 11:14:36;;;;;;;9.52;5.97;;;21.60;44.00;;;;;;5002191;28;20025;-77
2023/04/21 11:17:02;;;;;;;10.68;5.80;;;21.60;43.00;;;;;;5003717;28;20052;-77
2023/04/21 11:19:30;;;;;;;12.57;5.60;;;22.00;43.80;;;;;;5003292;28;20057;-76
2023/04/21 11:21:56;;;;;;;8.95;5.97;;;22.10;43.60;;;;;;5006208;28;20168;-77
2023/04/21 11:24:21;;;;;;;10.68;6.00;;;22.40;44.60;;;;;;5007290;28;20262;-77
2023/04/21 11:26:47;;;;;;;11.48;5.82;;;22.00;43.40;;;;;;5000248;28;20453;-76
2023/04/21 11:29:14;;;;;;;10.05;5.28;;;21.90;42.50;;;;;;5007600;28;20041;-76
2023/04/21 11:31:43;;;;;;;9.05;5.45;;;21.80;43.00;;;;;;5008279;28;20441;-77
2023/04/21 11:34:08;;;;;;;8.00;4.88;;;22.00;42.00;;;;;;4997899;28;20117;-77
2023/04/21 11:36:38;;;;;;;10.38;5.80;;;21.50;44.20;;;;;;5005833;28;20383;-77
2023/04/21 11:39:07;;;;;;;10.93;5.50;;;22.10;42.50;;;;;;5006297;28;20038;-77
2023/04/21 11:41:32;;;;;;;7.65;5.20;;;22.60;43.70;;;;;;5006254;28;20083;-77
2023/04/21 11:43:58;;;;;;;9.52;5.20;;;22.90;40.50;;;;;;5006413;28;20681;-77
2023/04/21 11:46:25;;;;;;;9.60;5.20;;;22.50;42.40;;;;;;5007034;28;20050;-77
2023/04/21 11:49:03;;;;;;;10.05;5.80;;;23.20;41.60;;;;;;4998672;28;20054;-77
2023/04/21 11:51:41;;;;;;;8.50;4.95;;;22.80;39.70;;;;;;5003517;28;20086;-77
2023/04/21 11:54:11;;;;;;;11.07;4.90;;;22.70;41.20;;;;;;4999722;28;20441;-77
2023/04/21 11:56:38;;;;;;;13.07;5.03;;;23.20;41.30;;;;;;4989468;28;20030;-77
2023/04/21 11:59:12;;;;;;;9.98;5.72;;;23.20;40.00;;;;;;5004234;28;20434;-77
2023/04/21 12:01:49;;;;;;;7.13;5.00;;;23.40;39.50;;;;;;5002524;28;20100;-76
2023/04/21 12:04:22;;;;;;;16.15;5.20;;;23.00;38.80;;;;;;4994655;28;20061;-76
2023/04/21 12:07:01;;;;;;;8.00;5.00;;;23.50;39.10;;;;;;5001636;28;20046;-76
2023/04/21 12:09:28;;;;;;;10.27;5.35;;;23.00;39.10;;;;;;5005937;28;20042;-76
2023/04/21 12:12:01;;;;;;;9.02;4.65;;;23.40;38.10;;;;;;5003302;28;20025;-76
2023/04/21 12:14:27;;;;;;;9.75;5.03;;;23.80;39.30;;;;;;4997879;28;20512;-76
2023/04/21 12:16:55;;;;;;;9.13;4.97;;;23.00;39.50;;;;;;4994897;28;20045;-76
2023/04/21 12:19:34;;;;;;;7.13;4.65;;;22.60;38.80;;;;;;4992055;28;20036;-76
2023/04/21 12:22:00;;;;;;;7.28;4.43;;;22.50;40.40;;;;;;4994588;28;20054;-76
2023/04/21 12:24:25;;;;;;;9.40;4.10;;;22.30;39.80;;;;;;5003161;28;20076;-76
2023/04/21 12:26:51;;;;;;;7.10;3.83;;;22.50;36.30;;;;;;4997691;28;20517;-77
2023/04/21 12:29:17;;;;;;;9.40;4.30;;;22.00;35.40;;;;;;5005061;28;20171;-77
2023/04/21 12:31:42;;;;;;;8.25;4.22;;;22.00;34.80;;;;;;5002412;28;20048;-78
2023/04/21 12:34:08;;;;;;;8.85;4.30;;;21.90;37.20;;;;;;5000059;28;20108;-76
2023/04/21 12:36:34;;;;;;;8.55;4.38;;;21.60;36.50;;;;;;4994824;28;20034;-75
2023/04/21 12:38:59;;;;;;;7.82;4.38;;;21.20;38.00;;;;;;5007689;28;20026;-75
2023/04/21 12:41:25;;;;;;;10.40;4.63;;;21.50;39.10;;;;;;4996035;28;20407;-77